METAR Data
IDs: Format: Raw Decoded Include TAF

Data at: 2218 UTC 25 Oct 2021

PACD 252153Z 36022G30KT 10SM -RA OVC036 03/M02 A2934 RMK AO2 PK WND 36032/2133 SLP936 P0000 T00281022
PACD 252053Z 36021G29KT 10SM -RA SCT028 BKN036 OVC055 03/M01 A2932 RMK AO2 PK WND 01031/2011 SLP931 P0000 60007 I1000 I3002 T00281011 51024
PACD 251953Z 36020G26KT 10SM -RA OVC024 02/00 A2930 RMK AO2 PK WND 36026/1953 SLP922 P0006 I1002 T00170000
PACD 251948Z 36020G25KT 10SM -RA FEW014 OVC021 02/00 A2929 RMK AO2 P0006 I1002
PACD 251933Z 02014KT 3SM -RA BR BKN013 OVC021 01/M01 A2929 RMK AO2 P0005 I1002 T00061006
PACD 251925Z 01013KT 1 1/4SM -RA BR BKN011 OVC031 01/M01 A2928 RMK AO2 P0004 I1002 T00061006
PACD 251916Z 35013KT 1 1/2SM -RA BR FEW009 BKN017 OVC031 01/M01 A2928 RMK AO2 PRESRR P0001 I1000 T00061006
PACD 251911Z 35015G21KT 2 1/2SM -RA BR FEW011 BKN024 OVC031 01/00 A2928 RMK AO2 P0001 T00110000
PACD 251853Z 33009KT 10SM -RA BKN050 OVC065 02/01 A2925 RMK AO2 SLP907 P0001 T00220006
PACD 251753Z 36012KT 6SM -RA BR FEW009 BKN034 OVC070 02/00 A2923 RMK AO2 SLP897 P0000 60001 T00170000 10022 20011 53019 $
PACD 251711Z 33009KT 10SM -RA SCT026 SCT032 BKN070 01/00 A2920 RMK AO2 P0000 T00110000 $
PACD 251653Z 34012KT 10SM -RA FEW016 BKN023 OVC030 02/00 A2920 RMK AO2 SLP889 P0001 T00170000 $
PACD 251619Z 36007KT 10SM -RA SCT020 BKN025 OVC041 02/M01 A2919 RMK AO2 P0000 T00171006 $
PACD 251553Z 01009KT 10SM -RA BKN045 02/M02 A2917 RMK AO2 SLP880 P0000 T00171017 $
PACD 251453Z AUTO 34008KT 10SM -RA OVC047 02/M02 A2917 RMK AO2 SLP878 P0000 60000 T00171022 52009 TSNO $
PACD 251353Z AUTO 36011KT 10SM -RA OVC037 02/M02 A2916 RMK AO2 SLP875 P0000 T00221017 TSNO $
PACD 251253Z AUTO 01008KT 10SM -RA OVC038 02/M02 A2915 RMK AO2 SLP872 P0000 T00171017 TSNO $
PACD 251153Z AUTO 02011KT 10SM -RA SCT050 BKN080 OVC095 01/M02 A2914 RMK AO2 SLP869 P0000 60000 T00111022 10028 20011 53004 TSNO $
PACD 251053Z AUTO 01011KT 10SM -RA BKN043 OVC070 02/M02 A2914 RMK AO2 SLP867 P0000 T00171022 TSNO $
PACD 250953Z AUTO 03018KT 10SM -RA OVC070 02/M02 A2912 RMK AO2 PK WND 03026/0930 SLP860 P0000 T00221022 TSNO $
PACD 250853Z AUTO 02015KT 10SM -RA FEW040 BKN050 OVC070 02/M02 A2913 RMK AO2 SLP865 P0000 60000 T00221022 400561006 55009 TSNO $
PACD 250753Z AUTO 02012KT 10SM -RA SCT034 OVC043 02/M01 A2913 RMK AO2 SLP865 P0000 T00221011 TSNO $
PACD 250653Z AUTO 02008KT 10SM -RA FEW035 OVC055 02/M02 A2914 RMK AO2 SLP869 P0000 T00221017 TSNO $
PACD 250553Z AUTO 02008KT 10SM -RA BKN055 BKN070 OVC085 02/M02 A2916 RMK AO2 SLP874 P0000 60000 T00221022 10050 20022 56033 TSNO $
PACD 250453Z AUTO 06010G18KT 7SM -RA OVC045 03/M01 A2918 RMK AO2 SLP881 P0000 T00281011 TSNO $
PACD 250353Z AUTO 06014G23KT 9SM -RA OVC050 03/M02 A2922 RMK AO2 SLP895 P0000 T00331022 TSNO $
PACD 250253Z AUTO 07013G20KT 10SM -RA BKN055 BKN080 OVC100 04/M03 A2925 RMK AO2 SLP907 P0000 60000 T00391028 56045 TSNO $
PACD 250153Z AUTO 08012KT 10SM -RA FEW033 BKN050 OVC110 04/M02 A2928 RMK AO2 SLP917 P0000 T00391022 TSNO $
PACD 250053Z 12015KT 10SM -RA FEW032 OVC048 04/M02 A2933 RMK AO2 SLP934 P0000 T00441022 $
PACD 242353Z 13009KT 10SM -RA CLR 04/M01 A2938 RMK AO2 SLP952 P0000 60000 T00441011 10056 21006 58057 $
PACD 242253Z 10007KT 10SM -RA CLR 04/M01 A2945 RMK AO2 SLP973 P0000 T00391011 $
PACD 242153Z VRB03KT 10SM -RA FEW044 06/00 A2951 RMK AO2 SLP993 P0000 T00560000 $
PACD 242053Z 00000KT 10SM -RA BKN048 03/00 A2955 RMK AO2 SLP009 P0000 60000 T00330000 56027 $
PACD 242033Z 00000KT 10SM -RA SCT028 BKN050 03/M01 A2957 RMK AO2 P0000 T00281006 $
PACD 242022Z 00000KT 10SM -RA BKN028 BKN038 03/M01 A2958 RMK AO2 P0000 T00281006 $
PACD 241953Z 00000KT 10SM -RA FEW048 02/M01 A2959 RMK AO2 SLP021 P0000 T00171011 $
PACD 241853Z 03004KT 10SM -RA BKN049 03/M01 A2959 RMK AO2 SLP021 P0000 T00281011 $
PACD 241753Z 28004KT 10SM -RA BKN050 00/M03 A2963 RMK AO2 SLP036 P0000 60000 T00001033 10028 21006 58028 $
PACD 241653Z 29005KT 10SM -RA SCT043 00/M03 A2967 RMK AO2 SLP047 P0000 T00001033 $
PACD 241553Z 33008KT 10SM -RA CLR 01/M03 A2968 RMK AO2 SLP053 P0000 T00111033 TSNO $
PACD 241453Z AUTO 33010KT 10SM -RA FEW037 BKN048 03/M02 A2972 RMK AO2 SLP064 P0000 60000 T00281022 58010 TSNO $
PACD 241353Z AUTO 33013KT 10SM -RA OVC055 03/M02 A2974 RMK AO2 SLP072 P0000 T00281022 TSNO $
PACD 241253Z AUTO 32012KT 10SM -RA SCT050 03/M02 A2975 RMK AO2 SLP075 P0000 T00281022 TSNO $
PACD 241153Z AUTO 33018KT 10SM -RA SCT055 03/M01 A2975 RMK AO2 SLP074 P0000 60000 70007 T00281011 10044 20022 51010 TSNO $
PACD 241053Z AUTO 33020G27KT 10SM -RA FEW034 SCT049 03/M02 A2974 RMK AO2 PK WND 33027/1049 SLP072 P0000 T00281017 TSNO $